sensor_id;sensor_type;location;lat;lon;timestamp;P1;durP1;ratioP1;P2;durP2;ratioP2
16137;SDS011;8174;43.550;5.206;2022-10-17T00:02:26;11.02;;;5.95;;
16137;SDS011;8174;43.550;5.206;2022-10-17T00:04:55;12.20;;;6.28;;
16137;SDS011;8174;43.550;5.206;2022-10-17T00:07:22;10.40;;;6.10;;
16137;SDS011;8174;43.550;5.206;2022-10-17T00:09:50;10.40;;;5.65;;
16137;SDS011;8174;43.550;5.206;2022-10-17T00:12:17;10.50;;;6.10;;
16137;SDS011;8174;43.550;5.206;2022-10-17T00:14:45;9.57;;;6.05;;
16137;SDS011;8174;43.550;5.206;2022-10-17T00:17:12;9.80;;;6.30;;
16137;SDS011;8174;43.550;5.206;2022-10-17T00:19:40;10.43;;;6.30;;
16137;SDS011;8174;43.550;5.206;2022-10-17T00:22:09;9.25;;;6.00;;
16137;SDS011;8174;43.550;5.206;2022-10-17T00:24:37;11.82;;;6.15;;
16137;SDS011;8174;43.550;5.206;2022-10-17T00:27:04;9.93;;;6.50;;
16137;SDS011;8174;43.550;5.206;2022-10-17T00:29:32;9.50;;;5.97;;
16137;SDS011;8174;43.550;5.206;2022-10-17T00:31:59;10.88;;;6.93;;
16137;SDS011;8174;43.550;5.206;2022-10-17T00:34:28;8.82;;;7.15;;
16137;SDS011;8174;43.550;5.206;2022-10-17T00:36:56;13.60;;;6.67;;
16137;SDS011;8174;43.550;5.206;2022-10-17T00:39:25;9.03;;;6.47;;
16137;SDS011;8174;43.550;5.206;2022-10-17T00:41:52;11.33;;;6.77;;
16137;SDS011;8174;43.550;5.206;2022-10-17T00:47:07;8.83;;;6.50;;
16137;SDS011;8174;43.550;5.206;2022-10-17T00:49:36;9.13;;;5.90;;
16137;SDS011;8174;43.550;5.206;2022-10-17T00:52:05;10.18;;;6.35;;
16137;SDS011;8174;43.550;5.206;2022-10-17T00:54:37;9.47;;;5.50;;
16137;SDS011;8174;43.550;5.206;2022-10-17T00:57:06;13.25;;;7.78;;
16137;SDS011;8174;43.550;5.206;2022-10-17T00:59:33;7.28;;;5.80;;
16137;SDS011;8174;43.550;5.206;2022-10-17T01:02:05;9.32;;;5.85;;
16137;SDS011;8174;43.550;5.206;2022-10-17T01:04:34;9.25;;;6.50;;
16137;SDS011;8174;43.550;5.206;2022-10-17T01:07:01;10.48;;;6.65;;
16137;SDS011;8174;43.550;5.206;2022-10-17T01:09:29;9.50;;;6.60;;
16137;SDS011;8174;43.550;5.206;2022-10-17T01:12:00;8.03;;;6.23;;
16137;SDS011;8174;43.550;5.206;2022-10-17T01:14:31;9.40;;;6.30;;
16137;SDS011;8174;43.550;5.206;2022-10-17T01:17:03;9.68;;;6.82;;
16137;SDS011;8174;43.550;5.206;2022-10-17T01:19:39;9.95;;;7.07;;
16137;SDS011;8174;43.550;5.206;2022-10-17T01:22:11;10.82;;;6.15;;
16137;SDS011;8174;43.550;5.206;2022-10-17T01:24:54;10.00;;;6.30;;
16137;SDS011;8174;43.550;5.206;2022-10-17T01:32:55;12.55;;;6.50;;
16137;SDS011;8174;43.550;5.206;2022-10-17T01:35:25;9.33;;;6.00;;
16137;SDS011;8174;43.550;5.206;2022-10-17T01:37:55;9.98;;;6.50;;
16137;SDS011;8174;43.550;5.206;2022-10-17T01:40:26;12.97;;;6.13;;
16137;SDS011;8174;43.550;5.206;2022-10-17T01:42:56;12.73;;;5.43;;
16137;SDS011;8174;43.550;5.206;2022-10-17T01:45:25;9.70;;;5.72;;
16137;SDS011;8174;43.550;5.206;2022-10-17T01:47:55;8.38;;;5.75;;
16137;SDS011;8174;43.550;5.206;2022-10-17T01:50:26;8.77;;;5.83;;
16137;SDS011;8174;43.550;5.206;2022-10-17T01:52:55;8.40;;;5.60;;
16137;SDS011;8174;43.550;5.206;2022-10-17T01:55:25;9.47;;;5.33;;
16137;SDS011;8174;43.550;5.206;2022-10-17T01:57:56;8.45;;;5.50;;
16137;SDS011;8174;43.550;5.206;2022-10-17T02:00:25;7.18;;;5.18;;
16137;SDS011;8174;43.550;5.206;2022-10-17T02:02:55;6.95;;;5.43;;
16137;SDS011;8174;43.550;5.206;2022-10-17T02:05:27;7.07;;;5.27;;
16137;SDS011;8174;43.550;5.206;2022-10-17T02:07:57;7.45;;;5.28;;
16137;SDS011;8174;43.550;5.206;2022-10-17T02:10:28;9.07;;;5.17;;
16137;SDS011;8174;43.550;5.206;2022-10-17T02:12:58;7.03;;;5.10;;
16137;SDS011;8174;43.550;5.206;2022-10-17T02:15:33;7.53;;;4.70;;
16137;SDS011;8174;43.550;5.206;2022-10-17T02:18:09;7.10;;;4.77;;
16137;SDS011;8174;43.550;5.206;2022-10-17T02:20:42;5.87;;;4.47;;
16137;SDS011;8174;43.550;5.206;2022-10-17T02:23:16;6.80;;;4.90;;
16137;SDS011;8174;43.550;5.206;2022-10-17T02:25:47;7.43;;;5.40;;
16137;SDS011;8174;43.550;5.206;2022-10-17T02:28:18;6.60;;;4.68;;
16137;SDS011;8174;43.550;5.206;2022-10-17T02:30:49;7.50;;;4.37;;
16137;SDS011;8174;43.550;5.206;2022-10-17T02:33:21;6.90;;;4.32;;
16137;SDS011;8174;43.550;5.206;2022-10-17T02:35:50;8.15;;;4.60;;
16137;SDS011;8174;43.550;5.206;2022-10-17T02:38:18;6.20;;;4.88;;
16137;SDS011;8174;43.550;5.206;2022-10-17T02:40:46;8.23;;;4.40;;
16137;SDS011;8174;43.550;5.206;2022-10-17T02:43:15;7.10;;;4.57;;
16137;SDS011;8174;43.550;5.206;2022-10-17T02:45:43;7.90;;;4.50;;
16137;SDS011;8174;43.550;5.206;2022-10-17T02:48:13;7.88;;;4.60;;
16137;SDS011;8174;43.550;5.206;2022-10-17T02:50:46;6.45;;;4.45;;
16137;SDS011;8174;43.550;5.206;2022-10-17T02:53:19;4.97;;;4.30;;
16137;SDS011;8174;43.550;5.206;2022-10-17T02:55:52;6.40;;;4.53;;
16137;SDS011;8174;43.550;5.206;2022-10-17T02:58:20;6.80;;;4.00;;
16137;SDS011;8174;43.550;5.206;2022-10-17T03:00:50;7.18;;;4.30;;
16137;SDS011;8174;43.550;5.206;2022-10-17T03:03:20;7.03;;;4.57;;
16137;SDS011;8174;43.550;5.206;2022-10-17T03:05:49;6.70;;;4.25;;
16137;SDS011;8174;43.550;5.206;2022-10-17T03:08:17;7.63;;;4.68;;
16137;SDS011;8174;43.550;5.206;2022-10-17T03:10:44;7.65;;;4.40;;
16137;SDS011;8174;43.550;5.206;2022-10-17T03:13:12;5.97;;;4.75;;
16137;SDS011;8174;43.550;5.206;2022-10-17T03:15:39;7.88;;;4.47;;
16137;SDS011;8174;43.550;5.206;2022-10-17T03:18:07;6.65;;;4.43;;
16137;SDS011;8174;43.550;5.206;2022-10-17T03:20:35;11.30;;;4.93;;
16137;SDS011;8174;43.550;5.206;2022-10-17T03:23:04;8.00;;;4.80;;
16137;SDS011;8174;43.550;5.206;2022-10-17T03:25:31;9.60;;;5.07;;
16137;SDS011;8174;43.550;5.206;2022-10-17T03:27:59;5.23;;;4.50;;
16137;SDS011;8174;43.550;5.206;2022-10-17T03:30:27;5.60;;;4.57;;
16137;SDS011;8174;43.550;5.206;2022-10-17T03:32:56;6.80;;;4.67;;
16137;SDS011;8174;43.550;5.206;2022-10-17T03:35:23;6.97;;;4.63;;
16137;SDS011;8174;43.550;5.206;2022-10-17T03:37:51;5.97;;;5.37;;
16137;SDS011;8174;43.550;5.206;2022-10-17T03:40:20;7.23;;;4.67;;
16137;SDS011;8174;43.550;5.206;2022-10-17T03:42:48;6.57;;;4.80;;
16137;SDS011;8174;43.550;5.206;2022-10-17T03:45:15;8.43;;;4.93;;
16137;SDS011;8174;43.550;5.206;2022-10-17T03:47:42;6.88;;;4.65;;
16137;SDS011;8174;43.550;5.206;2022-10-17T03:50:10;6.88;;;4.80;;
16137;SDS011;8174;43.550;5.206;2022-10-17T03:52:37;8.70;;;4.77;;
16137;SDS011;8174;43.550;5.206;2022-10-17T03:55:05;6.13;;;4.90;;
16137;SDS011;8174;43.550;5.206;2022-10-17T03:57:34;8.60;;;4.60;;
16137;SDS011;8174;43.550;5.206;2022-10-17T04:00:02;6.90;;;4.68;;
16137;SDS011;8174;43.550;5.206;2022-10-17T04:02:30;7.93;;;4.70;;
16137;SDS011;8174;43.550;5.206;2022-10-17T04:04:59;9.88;;;4.88;;
16137;SDS011;8174;43.550;5.206;2022-10-17T04:07:26;9.57;;;5.07;;
16137;SDS011;8174;43.550;5.206;2022-10-17T04:09:54;7.80;;;5.05;;
16137;SDS011;8174;43.550;5.206;2022-10-17T04:12:22;8.20;;;4.85;;
16137;SDS011;8174;43.550;5.206;2022-10-17T04:14:50;7.43;;;4.57;;
16137;SDS011;8174;43.550;5.206;2022-10-17T04:17:18;7.25;;;4.80;;
16137;SDS011;8174;43.550;5.206;2022-10-17T04:19:47;6.75;;;4.55;;
16137;SDS011;8174;43.550;5.206;2022-10-17T04:22:15;9.90;;;5.10;;
16137;SDS011;8174;43.550;5.206;2022-10-17T04:24:42;15.25;;;5.03;;
16137;SDS011;8174;43.550;5.206;2022-10-17T04:27:10;6.72;;;4.90;;
16137;SDS011;8174;43.550;5.206;2022-10-17T04:29:37;9.27;;;4.78;;
16137;SDS011;8174;43.550;5.206;2022-10-17T04:32:06;6.70;;;4.85;;
16137;SDS011;8174;43.550;5.206;2022-10-17T04:34:34;7.07;;;4.72;;
16137;SDS011;8174;43.550;5.206;2022-10-17T04:37:02;8.85;;;5.22;;
16137;SDS011;8174;43.550;5.206;2022-10-17T04:39:29;8.02;;;4.95;;
16137;SDS011;8174;43.550;5.206;2022-10-17T04:41:57;6.00;;;4.75;;
16137;SDS011;8174;43.550;5.206;2022-10-17T04:44:24;10.93;;;6.22;;
16137;SDS011;8174;43.550;5.206;2022-10-17T04:46:55;7.63;;;5.03;;
16137;SDS011;8174;43.550;5.206;2022-10-17T04:49:24;9.47;;;5.03;;
16137;SDS011;8174;43.550;5.206;2022-10-17T04:51:51;7.53;;;5.50;;
16137;SDS011;8174;43.550;5.206;2022-10-17T04:54:19;12.68;;;5.85;;
16137;SDS011;8174;43.550;5.206;2022-10-17T04:56:47;11.38;;;5.93;;
16137;SDS011;8174;43.550;5.206;2022-10-17T04:59:14;12.57;;;7.80;;
16137;SDS011;8174;43.550;5.206;2022-10-17T05:01:42;10.83;;;6.10;;
16137;SDS011;8174;43.550;5.206;2022-10-17T05:04:09;9.37;;;5.53;;
16137;SDS011;8174;43.550;5.206;2022-10-17T05:06:38;18.17;;;5.97;;
16137;SDS011;8174;43.550;5.206;2022-10-17T05:09:06;11.27;;;6.13;;
16137;SDS011;8174;43.550;5.206;2022-10-17T05:11:33;8.37;;;5.57;;
16137;SDS011;8174;43.550;5.206;2022-10-17T05:14:01;8.18;;;5.88;;
16137;SDS011;8174;43.550;5.206;2022-10-17T05:16:29;11.48;;;6.10;;
16137;SDS011;8174;43.550;5.206;2022-10-17T05:18:56;8.60;;;5.33;;
16137;SDS011;8174;43.550;5.206;2022-10-17T05:21:25;11.17;;;6.30;;
16137;SDS011;8174;43.550;5.206;2022-10-17T05:23:54;11.38;;;5.90;;
16137;SDS011;8174;43.550;5.206;2022-10-17T05:26:22;11.87;;;5.73;;
16137;SDS011;8174;43.550;5.206;2022-10-17T05:28:50;9.68;;;5.18;;
16137;SDS011;8174;43.550;5.206;2022-10-17T05:31:18;11.13;;;5.73;;
16137;SDS011;8174;43.550;5.206;2022-10-17T05:33:46;9.60;;;5.10;;
16137;SDS011;8174;43.550;5.206;2022-10-17T05:36:14;10.85;;;5.38;;
16137;SDS011;8174;43.550;5.206;2022-10-17T05:38:42;9.77;;;5.70;;
16137;SDS011;8174;43.550;5.206;2022-10-17T05:41:11;9.93;;;5.10;;
16137;SDS011;8174;43.550;5.206;2022-10-17T05:43:39;15.10;;;5.83;;
16137;SDS011;8174;43.550;5.206;2022-10-17T05:46:06;9.93;;;5.20;;
16137;SDS011;8174;43.550;5.206;2022-10-17T05:48:34;15.30;;;5.83;;
16137;SDS011;8174;43.550;5.206;2022-10-17T05:51:02;10.43;;;5.80;;
16137;SDS011;8174;43.550;5.206;2022-10-17T05:53:30;13.87;;;6.30;;
16137;SDS011;8174;43.550;5.206;2022-10-17T05:55:58;12.20;;;6.00;;
16137;SDS011;8174;43.550;5.206;2022-10-17T05:58:27;13.70;;;6.20;;
16137;SDS011;8174;43.550;5.206;2022-10-17T06:00:58;14.43;;;6.43;;
16137;SDS011;8174;43.550;5.206;2022-10-17T06:03:26;11.50;;;5.85;;
16137;SDS011;8174;43.550;5.206;2022-10-17T06:05:54;10.00;;;5.60;;
16137;SDS011;8174;43.550;5.206;2022-10-17T06:08:21;9.82;;;5.47;;
16137;SDS011;8174;43.550;5.206;2022-10-17T06:10:49;12.13;;;5.60;;
16137;SDS011;8174;43.550;5.206;2022-10-17T06:13:16;19.25;;;6.03;;
16137;SDS011;8174;43.550;5.206;2022-10-17T06:15:46;13.27;;;5.77;;
16137;SDS011;8174;43.550;5.206;2022-10-17T06:18:13;10.00;;;5.25;;
16137;SDS011;8174;43.550;5.206;2022-10-17T06:20:41;10.75;;;5.38;;
16137;SDS011;8174;43.550;5.206;2022-10-17T06:23:09;10.63;;;4.77;;
16137;SDS011;8174;43.550;5.206;2022-10-17T06:25:36;10.57;;;5.22;;
16137;SDS011;8174;43.550;5.206;2022-10-17T06:28:04;11.80;;;5.13;;
16137;SDS011;8174;43.550;5.206;2022-10-17T06:30:32;8.13;;;4.97;;
16137;SDS011;8174;43.550;5.206;2022-10-17T06:33:01;9.93;;;5.00;;
16137;SDS011;8174;43.550;5.206;2022-10-17T06:35:28;8.88;;;4.60;;
16137;SDS011;8174;43.550;5.206;2022-10-17T06:37:57;9.18;;;4.63;;
16137;SDS011;8174;43.550;5.206;2022-10-17T06:40:25;8.20;;;4.68;;
16137;SDS011;8174;43.550;5.206;2022-10-17T06:42:52;13.63;;;4.97;;
16137;SDS011;8174;43.550;5.206;2022-10-17T06:45:20;12.38;;;4.93;;
16137;SDS011;8174;43.550;5.206;2022-10-17T06:47:47;12.38;;;5.05;;
16137;SDS011;8174;43.550;5.206;2022-10-17T06:50:16;6.50;;;4.75;;
16137;SDS011;8174;43.550;5.206;2022-10-17T06:52:49;7.93;;;4.80;;
16137;SDS011;8174;43.550;5.206;2022-10-17T06:55:17;7.80;;;5.03;;
16137;SDS011;8174;43.550;5.206;2022-10-17T06:57:44;7.45;;;5.05;;
16137;SDS011;8174;43.550;5.206;2022-10-17T07:00:12;11.50;;;5.13;;
16137;SDS011;8174;43.550;5.206;2022-10-17T07:02:41;17.33;;;5.18;;
16137;SDS011;8174;43.550;5.206;2022-10-17T07:05:08;12.38;;;4.70;;
16137;SDS011;8174;43.550;5.206;2022-10-17T07:07:38;13.55;;;4.95;;
16137;SDS011;8174;43.550;5.206;2022-10-17T07:10:05;9.77;;;4.60;;
16137;SDS011;8174;43.550;5.206;2022-10-17T07:12:34;8.90;;;5.07;;
16137;SDS011;8174;43.550;5.206;2022-10-17T07:15:02;10.07;;;5.10;;
16137;SDS011;8174;43.550;5.206;2022-10-17T07:17:29;11.88;;;4.55;;
16137;SDS011;8174;43.550;5.206;2022-10-17T07:19:57;10.48;;;4.82;;
16137;SDS011;8174;43.550;5.206;2022-10-17T07:22:24;12.43;;;4.82;;
16137;SDS011;8174;43.550;5.206;2022-10-17T07:24:53;8.75;;;4.57;;
16137;SDS011;8174;43.550;5.206;2022-10-17T07:27:21;13.27;;;4.32;;
16137;SDS011;8174;43.550;5.206;2022-10-17T07:29:49;8.23;;;3.90;;
16137;SDS011;8174;43.550;5.206;2022-10-17T07:32:16;8.50;;;4.03;;
16137;SDS011;8174;43.550;5.206;2022-10-17T07:34:44;6.13;;;3.72;;
16137;SDS011;8174;43.550;5.206;2022-10-17T07:37:11;7.90;;;3.58;;
16137;SDS011;8174;43.550;5.206;2022-10-17T07:39:39;11.15;;;4.60;;
16137;SDS011;8174;43.550;5.206;2022-10-17T07:42:08;8.98;;;4.10;;
16137;SDS011;8174;43.550;5.206;2022-10-17T07:44:36;10.25;;;4.20;;
16137;SDS011;8174;43.550;5.206;2022-10-17T07:47:03;10.30;;;4.03;;
16137;SDS011;8174;43.550;5.206;2022-10-17T07:49:31;11.48;;;4.05;;
16137;SDS011;8174;43.550;5.206;2022-10-17T07:51:58;11.35;;;3.80;;
16137;SDS011;8174;43.550;5.206;2022-10-17T07:54:26;6.90;;;3.70;;
16137;SDS011;8174;43.550;5.206;2022-10-17T07:56:54;8.05;;;3.75;;
16137;SDS011;8174;43.550;5.206;2022-10-17T07:59:23;7.75;;;4.75;;
16137;SDS011;8174;43.550;5.206;2022-10-17T08:01:50;6.32;;;3.65;;
16137;SDS011;8174;43.550;5.206;2022-10-17T08:04:21;11.48;;;3.88;;
16137;SDS011;8174;43.550;5.206;2022-10-17T08:06:48;9.52;;;3.78;;
16137;SDS011;8174;43.550;5.206;2022-10-17T08:09:16;6.72;;;3.53;;
16137;SDS011;8174;43.550;5.206;2022-10-17T08:11:44;8.98;;;3.92;;
16137;SDS011;8174;43.550;5.206;2022-10-17T08:14:11;5.20;;;3.40;;
16137;SDS011;8174;43.550;5.206;2022-10-17T08:16:42;9.05;;;3.13;;
16137;SDS011;8174;43.550;5.206;2022-10-17T08:19:10;10.60;;;3.80;;
16137;SDS011;8174;43.550;5.206;2022-10-17T08:21:37;8.65;;;3.63;;
16137;SDS011;8174;43.550;5.206;2022-10-17T08:24:05;6.22;;;3.78;;
16137;SDS011;8174;43.550;5.206;2022-10-17T08:26:33;5.43;;;3.67;;
16137;SDS011;8174;43.550;5.206;2022-10-17T08:29:00;6.45;;;3.30;;
16137;SDS011;8174;43.550;5.206;2022-10-17T08:31:28;4.93;;;3.20;;
16137;SDS011;8174;43.550;5.206;2022-10-17T08:33:57;8.93;;;3.30;;
16137;SDS011;8174;43.550;5.206;2022-10-17T08:36:24;7.55;;;3.47;;
16137;SDS011;8174;43.550;5.206;2022-10-17T08:38:53;5.85;;;3.28;;
16137;SDS011;8174;43.550;5.206;2022-10-17T08:41:25;5.35;;;3.20;;
16137;SDS011;8174;43.550;5.206;2022-10-17T08:44:00;8.63;;;3.35;;
16137;SDS011;8174;43.550;5.206;2022-10-17T08:46:29;7.38;;;3.45;;
16137;SDS011;8174;43.550;5.206;2022-10-17T08:48:59;6.15;;;3.33;;
16137;SDS011;8174;43.550;5.206;2022-10-17T08:51:29;5.80;;;3.13;;
16137;SDS011;8174;43.550;5.206;2022-10-17T08:54:00;6.80;;;3.78;;
16137;SDS011;8174;43.550;5.206;2022-10-17T08:56:32;8.88;;;3.22;;
16137;SDS011;8174;43.550;5.206;2022-10-17T08:59:00;6.05;;;2.85;;
16137;SDS011;8174;43.550;5.206;2022-10-17T09:01:30;6.45;;;3.08;;
16137;SDS011;8174;43.550;5.206;2022-10-17T09:06:46;5.93;;;2.78;;
16137;SDS011;8174;43.550;5.206;2022-10-17T09:09:20;5.80;;;3.08;;
16137;SDS011;8174;43.550;5.206;2022-10-17T09:11:55;6.43;;;2.88;;
16137;SDS011;8174;43.550;5.206;2022-10-17T09:14:29;7.88;;;3.10;;
16137;SDS011;8174;43.550;5.206;2022-10-17T09:17:05;4.50;;;2.90;;
16137;SDS011;8174;43.550;5.206;2022-10-17T09:19:35;6.88;;;3.10;;
16137;SDS011;8174;43.550;5.206;2022-10-17T09:22:07;5.05;;;2.75;;
16137;SDS011;8174;43.550;5.206;2022-10-17T09:24:38;8.43;;;2.78;;
16137;SDS011;8174;43.550;5.206;2022-10-17T09:27:08;8.98;;;3.05;;
16137;SDS011;8174;43.550;5.206;2022-10-17T09:29:41;9.40;;;2.83;;
16137;SDS011;8174;43.550;5.206;2022-10-17T09:32:13;7.68;;;2.92;;
16137;SDS011;8174;43.550;5.206;2022-10-17T09:34:41;5.05;;;2.90;;
16137;SDS011;8174;43.550;5.206;2022-10-17T09:37:11;9.00;;;3.30;;
16137;SDS011;8174;43.550;5.206;2022-10-17T09:39:39;5.55;;;2.70;;
16137;SDS011;8174;43.550;5.206;2022-10-17T09:42:08;9.75;;;2.80;;
16137;SDS011;8174;43.550;5.206;2022-10-17T09:44:38;10.05;;;2.97;;
16137;SDS011;8174;43.550;5.206;2022-10-17T09:47:11;4.72;;;2.78;;
16137;SDS011;8174;43.550;5.206;2022-10-17T09:49:41;4.88;;;2.92;;
16137;SDS011;8174;43.550;5.206;2022-10-17T09:52:11;8.88;;;3.10;;
16137;SDS011;8174;43.550;5.206;2022-10-17T09:54:41;6.82;;;3.08;;
16137;SDS011;8174;43.550;5.206;2022-10-17T09:57:09;13.30;;;3.17;;
16137;SDS011;8174;43.550;5.206;2022-10-17T09:59:38;7.15;;;2.90;;
16137;SDS011;8174;43.550;5.206;2022-10-17T10:02:13;9.23;;;2.95;;
16137;SDS011;8174;43.550;5.206;2022-10-17T10:04:50;6.25;;;2.90;;
16137;SDS011;8174;43.550;5.206;2022-10-17T10:07:19;4.78;;;2.58;;
16137;SDS011;8174;43.550;5.206;2022-10-17T10:09:47;6.32;;;2.95;;
16137;SDS011;8174;43.550;5.206;2022-10-17T10:12:16;6.60;;;2.95;;
16137;SDS011;8174;43.550;5.206;2022-10-17T10:14:44;7.75;;;2.70;;
16137;SDS011;8174;43.550;5.206;2022-10-17T10:19:54;11.68;;;5.80;;
16137;SDS011;8174;43.550;5.206;2022-10-17T10:22:23;5.20;;;2.60;;
16137;SDS011;8174;43.550;5.206;2022-10-17T10:25:05;4.07;;;2.45;;
16137;SDS011;8174;43.550;5.206;2022-10-17T10:27:33;8.38;;;2.97;;
16137;SDS011;8174;43.550;5.206;2022-10-17T10:30:00;4.18;;;2.70;;
16137;SDS011;8174;43.550;5.206;2022-10-17T10:32:29;3.70;;;2.60;;
16137;SDS011;8174;43.550;5.206;2022-10-17T10:34:58;8.75;;;2.60;;
16137;SDS011;8174;43.550;5.206;2022-10-17T10:37:29;5.20;;;2.72;;
16137;SDS011;8174;43.550;5.206;2022-10-17T10:40:00;4.95;;;2.67;;
16137;SDS011;8174;43.550;5.206;2022-10-17T10:42:28;6.40;;;2.50;;
16137;SDS011;8174;43.550;5.206;2022-10-17T10:44:57;5.93;;;2.17;;
16137;SDS011;8174;43.550;5.206;2022-10-17T10:47:26;4.18;;;2.40;;
16137;SDS011;8174;43.550;5.206;2022-10-17T10:50:06;5.32;;;2.30;;
16137;SDS011;8174;43.550;5.206;2022-10-17T10:52:36;3.70;;;2.50;;
16137;SDS011;8174;43.550;5.206;2022-10-17T10:55:13;4.55;;;2.50;;
16137;SDS011;8174;43.550;5.206;2022-10-17T10:57:42;3.13;;;2.15;;
16137;SDS011;8174;43.550;5.206;2022-10-17T11:00:11;4.53;;;2.30;;
16137;SDS011;8174;43.550;5.206;2022-10-17T11:02:41;4.38;;;2.60;;
16137;SDS011;8174;43.550;5.206;2022-10-17T11:05:13;7.38;;;2.17;;
16137;SDS011;8174;43.550;5.206;2022-10-17T11:07:44;3.13;;;2.40;;
16137;SDS011;8174;43.550;5.206;2022-10-17T11:10:14;5.50;;;2.80;;
16137;SDS011;8174;43.550;5.206;2022-10-17T11:12:44;5.60;;;2.40;;
16137;SDS011;8174;43.550;5.206;2022-10-17T11:15:15;4.03;;;2.20;;
16137;SDS011;8174;43.550;5.206;2022-10-17T11:17:44;6.85;;;2.30;;
16137;SDS011;8174;43.550;5.206;2022-10-17T11:20:17;6.47;;;2.45;;
16137;SDS011;8174;43.550;5.206;2022-10-17T11:22:47;3.97;;;2.60;;
16137;SDS011;8174;43.550;5.206;2022-10-17T11:25:28;8.52;;;2.80;;
16137;SDS011;8174;43.550;5.206;2022-10-17T11:27:57;8.10;;;4.10;;
16137;SDS011;8174;43.550;5.206;2022-10-17T11:30:26;3.72;;;2.58;;
16137;SDS011;8174;43.550;5.206;2022-10-17T11:32:54;3.28;;;2.15;;
16137;SDS011;8174;43.550;5.206;2022-10-17T11:35:23;6.60;;;3.42;;
16137;SDS011;8174;43.550;5.206;2022-10-17T11:37:54;4.05;;;2.28;;
16137;SDS011;8174;43.550;5.206;2022-10-17T11:40:26;6.22;;;2.25;;
16137;SDS011;8174;43.550;5.206;2022-10-17T11:42:55;5.95;;;2.10;;
16137;SDS011;8174;43.550;5.206;2022-10-17T11:45:25;3.65;;;2.17;;
16137;SDS011;8174;43.550;5.206;2022-10-17T11:47:54;5.53;;;1.95;;
16137;SDS011;8174;43.550;5.206;2022-10-17T11:50:25;4.68;;;2.03;;
16137;SDS011;8174;43.550;5.206;2022-10-17T11:52:55;5.97;;;2.30;;
16137;SDS011;8174;43.550;5.206;2022-10-17T11:55:26;3.05;;;1.98;;
16137;SDS011;8174;43.550;5.206;2022-10-17T11:57:56;4.75;;;2.00;;
16137;SDS011;8174;43.550;5.206;2022-10-17T12:00:30;4.25;;;1.95;;
16137;SDS011;8174;43.550;5.206;2022-10-17T12:03:04;5.53;;;2.53;;
16137;SDS011;8174;43.550;5.206;2022-10-17T12:05:36;5.47;;;2.70;;
16137;SDS011;8174;43.550;5.206;2022-10-17T12:08:09;4.65;;;3.10;;
16137;SDS011;8174;43.550;5.206;2022-10-17T12:10:42;8.20;;;2.58;;
16137;SDS011;8174;43.550;5.206;2022-10-17T12:15:57;7.15;;;2.50;;
16137;SDS011;8174;43.550;5.206;2022-10-17T12:18:24;5.85;;;2.33;;
16137;SDS011;8174;43.550;5.206;2022-10-17T12:20:54;6.25;;;2.47;;
16137;SDS011;8174;43.550;5.206;2022-10-17T12:23:25;4.85;;;2.90;;
16137;SDS011;8174;43.550;5.206;2022-10-17T12:25:54;5.07;;;2.60;;
16137;SDS011;8174;43.550;5.206;2022-10-17T12:28:27;4.88;;;2.50;;
16137;SDS011;8174;43.550;5.206;2022-10-17T12:30:57;3.70;;;2.50;;
16137;SDS011;8174;43.550;5.206;2022-10-17T12:33:28;4.20;;;2.30;;
16137;SDS011;8174;43.550;5.206;2022-10-17T12:38:40;6.72;;;3.00;;
16137;SDS011;8174;43.550;5.206;2022-10-17T12:41:08;7.25;;;2.75;;
16137;SDS011;8174;43.550;5.206;2022-10-17T12:46:44;8.10;;;2.72;;
16137;SDS011;8174;43.550;5.206;2022-10-17T12:52:16;5.07;;;2.63;;
16137;SDS011;8174;43.550;5.206;2022-10-17T12:54:46;7.55;;;2.88;;
16137;SDS011;8174;43.550;5.206;2022-10-17T12:57:17;5.55;;;3.17;;
16137;SDS011;8174;43.550;5.206;2022-10-17T12:59:46;10.40;;;3.50;;
16137;SDS011;8174;43.550;5.206;2022-10-17T13:02:15;5.38;;;3.10;;
16137;SDS011;8174;43.550;5.206;2022-10-17T13:04:44;9.25;;;3.47;;
16137;SDS011;8174;43.550;5.206;2022-10-17T13:07:14;6.80;;;3.35;;
16137;SDS011;8174;43.550;5.206;2022-10-17T13:09:43;7.10;;;3.58;;
16137;SDS011;8174;43.550;5.206;2022-10-17T13:12:12;6.13;;;3.22;;
16137;SDS011;8174;43.550;5.206;2022-10-17T13:14:40;6.40;;;3.20;;
16137;SDS011;8174;43.550;5.206;2022-10-17T13:17:19;7.95;;;3.40;;
16137;SDS011;8174;43.550;5.206;2022-10-17T13:19:47;6.82;;;3.13;;
16137;SDS011;8174;43.550;5.206;2022-10-17T13:22:15;6.00;;;3.10;;
16137;SDS011;8174;43.550;5.206;2022-10-17T13:24:44;6.63;;;3.13;;
16137;SDS011;8174;43.550;5.206;2022-10-17T13:27:23;7.82;;;3.20;;
16137;SDS011;8174;43.550;5.206;2022-10-17T13:29:51;5.10;;;3.17;;
16137;SDS011;8174;43.550;5.206;2022-10-17T13:32:20;5.68;;;3.35;;
16137;SDS011;8174;43.550;5.206;2022-10-17T13:35:03;8.18;;;3.22;;
16137;SDS011;8174;43.550;5.206;2022-10-17T13:37:31;8.90;;;3.13;;
16137;SDS011;8174;43.550;5.206;2022-10-17T13:40:00;5.38;;;3.03;;
16137;SDS011;8174;43.550;5.206;2022-10-17T13:42:30;7.07;;;3.13;;
16137;SDS011;8174;43.550;5.206;2022-10-17T13:44:57;7.15;;;3.35;;
16137;SDS011;8174;43.550;5.206;2022-10-17T13:47:26;7.32;;;3.25;;
16137;SDS011;8174;43.550;5.206;2022-10-17T13:49:53;7.72;;;3.15;;
16137;SDS011;8174;43.550;5.206;2022-10-17T13:52:22;12.48;;;3.20;;
16137;SDS011;8174;43.550;5.206;2022-10-17T13:54:52;5.45;;;3.28;;
16137;SDS011;8174;43.550;5.206;2022-10-17T13:57:20;8.13;;;3.17;;
16137;SDS011;8174;43.550;5.206;2022-10-17T13:59:50;6.57;;;2.75;;
16137;SDS011;8174;43.550;5.206;2022-10-17T14:02:20;7.63;;;2.90;;
16137;SDS011;8174;43.550;5.206;2022-10-17T14:04:58;10.30;;;3.15;;
16137;SDS011;8174;43.550;5.206;2022-10-17T14:07:27;5.85;;;3.33;;
16137;SDS011;8174;43.550;5.206;2022-10-17T14:09:57;8.48;;;3.53;;
16137;SDS011;8174;43.550;5.206;2022-10-17T14:12:24;8.70;;;3.40;;
16137;SDS011;8174;43.550;5.206;2022-10-17T14:14:53;9.73;;;3.47;;
16137;SDS011;8174;43.550;5.206;2022-10-17T14:17:21;8.48;;;3.60;;
16137;SDS011;8174;43.550;5.206;2022-10-17T14:19:50;5.32;;;2.97;;
16137;SDS011;8174;43.550;5.206;2022-10-17T14:22:24;10.68;;;3.42;;
16137;SDS011;8174;43.550;5.206;2022-10-17T14:24:53;7.53;;;3.28;;
16137;SDS011;8174;43.550;5.206;2022-10-17T14:27:27;7.28;;;3.85;;
16137;SDS011;8174;43.550;5.206;2022-10-17T14:29:59;10.73;;;3.58;;
16137;SDS011;8174;43.550;5.206;2022-10-17T14:32:28;8.07;;;3.72;;
16137;SDS011;8174;43.550;5.206;2022-10-17T14:34:57;8.00;;;3.33;;
16137;SDS011;8174;43.550;5.206;2022-10-17T14:37:40;10.07;;;3.55;;
16137;SDS011;8174;43.550;5.206;2022-10-17T14:40:13;7.70;;;3.38;;
16137;SDS011;8174;43.550;5.206;2022-10-17T14:42:41;7.07;;;3.40;;
16137;SDS011;8174;43.550;5.206;2022-10-17T14:45:12;9.85;;;3.03;;
16137;SDS011;8174;43.550;5.206;2022-10-17T14:47:40;8.20;;;3.10;;
16137;SDS011;8174;43.550;5.206;2022-10-17T14:50:19;14.73;;;7.18;;
16137;SDS011;8174;43.550;5.206;2022-10-17T14:52:57;10.07;;;3.50;;
16137;SDS011;8174;43.550;5.206;2022-10-17T14:55:25;5.35;;;3.22;;
16137;SDS011;8174;43.550;5.206;2022-10-17T14:57:53;20.10;;;4.10;;
16137;SDS011;8174;43.550;5.206;2022-10-17T15:00:22;7.93;;;3.50;;
16137;SDS011;8174;43.550;5.206;2022-10-17T15:02:50;9.50;;;3.30;;
16137;SDS011;8174;43.550;5.206;2022-10-17T15:05:18;6.60;;;3.10;;
16137;SDS011;8174;43.550;5.206;2022-10-17T15:07:47;7.40;;;3.60;;
16137;SDS011;8174;43.550;5.206;2022-10-17T15:10:31;7.80;;;3.10;;
16137;SDS011;8174;43.550;5.206;2022-10-17T15:12:59;8.60;;;3.40;;
16137;SDS011;8174;43.550;5.206;2022-10-17T15:15:28;5.95;;;3.38;;
16137;SDS011;8174;43.550;5.206;2022-10-17T15:17:56;4.13;;;3.25;;
16137;SDS011;8174;43.550;5.206;2022-10-17T15:20:24;8.75;;;5.68;;
16137;SDS011;8174;43.550;5.206;2022-10-17T15:22:53;6.20;;;3.42;;
16137;SDS011;8174;43.550;5.206;2022-10-17T15:25:21;7.32;;;3.60;;
16137;SDS011;8174;43.550;5.206;2022-10-17T15:27:48;6.65;;;3.45;;
16137;SDS011;8174;43.550;5.206;2022-10-17T15:30:17;7.38;;;3.70;;
16137;SDS011;8174;43.550;5.206;2022-10-17T15:32:46;9.73;;;3.50;;
16137;SDS011;8174;43.550;5.206;2022-10-17T15:35:14;6.55;;;3.50;;
16137;SDS011;8174;43.550;5.206;2022-10-17T15:37:42;11.35;;;3.60;;